createdAt,value
2023-03-26T00:02:54.163Z,10.25
2023-03-26T00:06:14.553Z,10.29
2023-03-26T00:09:17.872Z,10.22
2023-03-26T00:12:24.641Z,10.24
2023-03-26T00:15:26.913Z,10.24
2023-03-26T00:18:35.008Z,10.25
2023-03-26T00:21:39.934Z,10.14
2023-03-26T00:24:46.000Z,10.13
2023-03-26T00:27:49.915Z,10.04
2023-03-26T00:31:01.109Z,10.03
2023-03-26T00:34:05.834Z,10.04
2023-03-26T00:37:08.873Z,10.08
2023-03-26T00:40:11.737Z,10.03
2023-03-26T00:43:20.422Z,10.01
2023-03-26T00:46:29.115Z,10.01
2023-03-26T00:49:32.057Z,9.99
2023-03-26T00:52:39.172Z,9.93
2023-03-26T00:55:45.864Z,9.93
2023-03-26T00:58:50.924Z,9.95
2023-03-26T01:01:55.153Z,9.98
2023-03-26T01:05:02.846Z,9.92
2023-03-26T01:08:33.295Z,9.95
2023-03-26T01:11:36.008Z,10.00
2023-03-26T01:14:39.030Z,9.96
2023-03-26T01:17:44.582Z,9.88
2023-03-26T01:20:51.023Z,9.91
2023-03-26T01:24:07.085Z,9.86
2023-03-26T01:27:39.056Z,9.77
2023-03-26T01:31:25.224Z,9.72
2023-03-26T01:34:41.361Z,9.60
2023-03-26T01:37:59.940Z,9.52
2023-03-26T01:41:21.003Z,9.46
2023-03-26T01:44:29.655Z,9.40
2023-03-26T01:47:32.961Z,9.33
2023-03-26T01:50:37.591Z,9.31
2023-03-26T01:53:47.154Z,9.23
2023-03-26T01:56:58.640Z,9.18
2023-03-26T02:00:31.559Z,9.08
2023-03-26T02:03:46.852Z,9.02
2023-03-26T02:07:20.936Z,9.13
2023-03-26T02:10:28.604Z,9.37
2023-03-26T02:13:31.298Z,9.42
2023-03-26T02:16:34.034Z,9.61
2023-03-26T02:19:41.945Z,9.69
2023-03-26T02:22:48.356Z,9.64
2023-03-26T02:25:53.694Z,9.67
2023-03-26T02:28:58.956Z,9.71
2023-03-26T02:32:02.277Z,9.69
2023-03-26T02:35:05.483Z,9.73
2023-03-26T02:38:10.537Z,9.70
2023-03-26T02:41:17.107Z,9.74
2023-03-26T02:44:40.202Z,9.69
2023-03-26T02:47:54.476Z,9.68
2023-03-26T02:51:28.388Z,9.62
2023-03-26T02:54:39.630Z,9.68
2023-03-26T02:58:08.111Z,9.57
2023-03-26T03:01:18.547Z,9.53
2023-03-26T03:04:30.399Z,9.52
2023-03-26T03:07:38.685Z,9.55
2023-03-26T03:11:01.151Z,9.51
2023-03-26T03:14:14.789Z,9.48
2023-03-26T03:17:17.604Z,9.41
2023-03-26T03:20:22.034Z,9.34
2023-03-26T03:23:24.351Z,9.34
2023-03-26T03:26:31.889Z,9.25
2023-03-26T03:29:43.742Z,9.23
2023-03-26T03:33:13.471Z,9.16
2023-03-26T03:36:27.986Z,9.15
2023-03-26T03:39:40.558Z,9.07
2023-03-26T03:42:51.093Z,9.10
2023-03-26T03:46:05.853Z,9.11
2023-03-26T03:49:16.616Z,9.05
2023-03-26T03:52:21.627Z,9.11
2023-03-26T03:55:24.211Z,9.04
2023-03-26T03:58:31.056Z,8.97
2023-03-26T04:01:43.296Z,8.91
2023-03-26T04:05:06.477Z,8.83
2023-03-26T04:08:13.764Z,8.91
2023-03-26T04:11:23.178Z,8.87
2023-03-26T04:14:51.197Z,8.85
2023-03-26T04:17:58.303Z,8.78
2023-03-26T04:21:03.242Z,8.80
2023-03-26T04:24:07.260Z,8.79
2023-03-26T04:27:37.378Z,8.70
2023-03-26T04:31:24.387Z,8.59
2023-03-26T04:34:31.059Z,8.50
2023-03-26T04:37:49.093Z,8.39
2023-03-26T04:41:17.408Z,8.35
2023-03-26T04:44:28.061Z,8.20
2023-03-26T04:47:39.922Z,8.13
2023-03-26T04:50:46.289Z,8.09
2023-03-26T04:53:56.507Z,8.17
2023-03-26T04:57:09.458Z,8.12
2023-03-26T05:00:25.523Z,8.19
2023-03-26T05:03:32.558Z,8.15
2023-03-26T05:06:41.852Z,8.27
2023-03-26T05:09:53.826Z,8.33
2023-03-26T05:13:09.425Z,8.55
2023-03-26T05:16:14.533Z,8.74
2023-03-26T05:19:23.249Z,8.96
2023-03-26T05:22:30.510Z,9.33
2023-03-26T05:25:58.478Z,9.66
2023-03-26T05:29:03.060Z,9.91
2023-03-26T05:32:32.920Z,10.00
2023-03-26T05:35:37.720Z,10.17
2023-03-26T05:38:47.692Z,10.49
2023-03-26T05:41:56.854Z,10.80
2023-03-26T05:45:11.460Z,10.87
2023-03-26T05:48:13.745Z,11.09
2023-03-26T05:51:20.936Z,11.33
2023-03-26T05:54:34.721Z,11.75
2023-03-26T05:57:57.487Z,12.06
2023-03-26T06:01:29.394Z,12.35
2023-03-26T06:05:04.403Z,12.70
2023-03-26T06:08:25.834Z,12.73
2023-03-26T06:11:29.020Z,13.00
2023-03-26T06:14:31.901Z,13.05
2023-03-26T06:17:44.602Z,13.41
2023-03-26T06:21:07.599Z,13.77
2023-03-26T06:24:21.882Z,13.80
2023-03-26T06:27:45.457Z,13.97
2023-03-26T06:31:08.906Z,14.19
2023-03-26T06:34:29.365Z,14.61
2023-03-26T06:37:36.701Z,15.00
2023-03-26T06:40:41.495Z,15.40
2023-03-26T06:44:11.196Z,15.85
2023-03-26T06:47:31.859Z,16.22
2023-03-26T06:50:43.061Z,17.23
2023-03-26T06:53:59.582Z,17.23
2023-03-26T06:57:22.022Z,17.95
2023-03-26T07:00:45.441Z,17.80
2023-03-26T07:04:09.255Z,17.83
2023-03-26T07:07:30.633Z,18.25
2023-03-26T07:10:53.546Z,18.05
2023-03-26T07:14:14.702Z,18.14
2023-03-26T07:17:19.757Z,18.74
2023-03-26T07:20:31.547Z,18.19
2023-03-26T07:23:34.227Z,18.63
2023-03-26T07:27:35.420Z,18.89
2023-03-26T07:31:07.063Z,19.29
2023-03-26T07:34:35.263Z,20.10
2023-03-26T07:38:14.609Z,20.64
2023-03-26T07:41:49.334Z,20.35
2023-03-26T07:45:19.741Z,19.87
2023-03-26T07:48:51.412Z,19.96
2023-03-26T07:52:11.745Z,18.97
2023-03-26T07:56:11.878Z,18.49
2023-03-26T07:59:29.769Z,18.65
2023-03-26T08:03:07.404Z,19.36
2023-03-26T08:06:36.175Z,19.86
2023-03-26T08:10:08.607Z,19.33
2023-03-26T08:13:34.771Z,18.72
2023-03-26T08:16:58.050Z,17.95
2023-03-26T08:20:23.150Z,17.55
2023-03-26T08:24:05.400Z,17.33
2023-03-26T08:27:16.130Z,16.97
2023-03-26T08:30:28.232Z,16.81
2023-03-26T08:33:31.164Z,16.89
2023-03-26T08:36:37.611Z,16.64
2023-03-26T08:39:42.087Z,16.69
2023-03-26T08:43:04.479Z,16.78
2023-03-26T08:46:15.930Z,16.56
2023-03-26T08:49:55.935Z,16.67
2023-03-26T08:53:35.640Z,16.49
2023-03-26T08:57:15.840Z,16.57
2023-03-26T09:00:42.636Z,16.68
2023-03-26T09:04:03.896Z,17.57
2023-03-26T09:07:36.769Z,18.10
2023-03-26T09:10:51.965Z,18.14
2023-03-26T09:14:04.788Z,17.58
2023-03-26T09:17:25.376Z,17.48
2023-03-26T09:21:09.060Z,17.45
2023-03-26T09:24:27.731Z,17.48
2023-03-26T09:27:38.386Z,17.33
2023-03-26T09:31:02.375Z,17.70
2023-03-26T09:34:29.935Z,18.21
2023-03-26T09:37:35.363Z,18.67
2023-03-26T09:41:24.850Z,18.46
2023-03-26T09:44:57.248Z,18.76
2023-03-26T09:48:19.786Z,18.61
2023-03-26T09:51:26.750Z,18.55
2023-03-26T09:54:44.412Z,20.14
2023-03-26T09:57:58.581Z,21.40
2023-03-26T10:01:12.946Z,22.15
2023-03-26T10:04:46.013Z,22.46
2023-03-26T10:08:01.579Z,20.21
2023-03-26T10:11:19.124Z,19.29
2023-03-26T10:14:40.781Z,18.60
2023-03-26T10:18:29.255Z,18.17
2023-03-26T10:22:25.982Z,17.67
2023-03-26T10:25:47.248Z,17.60
2023-03-26T10:29:18.614Z,17.49
2023-03-26T10:32:45.815Z,17.01
2023-03-26T10:36:17.897Z,15.94
2023-03-26T10:39:36.624Z,14.85
2023-03-26T10:42:59.717Z,14.56
2023-03-26T10:46:19.513Z,14.54
2023-03-26T10:49:55.985Z,14.82
2023-03-26T10:53:37.459Z,15.13
2023-03-26T10:56:45.392Z,15.38
2023-03-26T10:59:47.704Z,15.64
2023-03-26T11:03:08.600Z,15.91
2023-03-26T11:06:33.360Z,16.22
2023-03-26T11:10:07.182Z,16.18
2023-03-26T11:13:44.673Z,16.21
2023-03-26T11:17:40.072Z,16.14
2023-03-26T11:21:19.207Z,15.88
2023-03-26T11:24:40.353Z,15.97
2023-03-26T11:28:09.384Z,16.03
2023-03-26T11:31:23.048Z,16.16
2023-03-26T11:34:33.851Z,16.14
2023-03-26T11:37:41.635Z,16.16
2023-03-26T11:40:51.490Z,16.19
2023-03-26T11:44:23.406Z,16.35
2023-03-26T11:47:35.853Z,16.52
2023-03-26T11:50:44.992Z,16.59
2023-03-26T11:53:49.501Z,16.76
2023-03-26T11:57:07.243Z,16.70
2023-03-26T12:00:21.146Z,16.69
2023-03-26T12:03:26.314Z,16.66
2023-03-26T12:06:33.156Z,16.70
2023-03-26T12:09:35.466Z,16.75
2023-03-26T12:12:42.204Z,16.56
2023-03-26T12:15:44.792Z,16.49
2023-03-26T12:19:08.392Z,16.68
2023-03-26T12:22:32.950Z,16.84
2023-03-26T12:25:38.706Z,17.06
2023-03-26T12:28:51.175Z,17.10
2023-03-26T12:32:07.733Z,17.06
2023-03-26T12:35:20.439Z,17.14
2023-03-26T12:38:35.846Z,17.22
2023-03-26T12:44:42.967Z,17.13
2023-03-26T12:45:07.684Z,17.10
2023-03-26T12:48:15.855Z,17.17
2023-03-26T12:51:31.232Z,17.24
2023-03-26T12:54:58.459Z,17.31
2023-03-26T12:58:15.926Z,17.37
2023-03-26T13:01:46.832Z,17.30
2023-03-26T13:05:06.041Z,17.36
2023-03-26T13:08:49.723Z,17.42
2023-03-26T13:12:17.426Z,17.42
2023-03-26T13:15:55.664Z,17.48
2023-03-26T13:19:10.816Z,17.64
2023-03-26T13:22:55.422Z,17.70
2023-03-26T13:26:10.489Z,17.58
2023-03-26T13:29:35.015Z,17.47
2023-03-26T13:32:59.066Z,17.44
2023-03-26T13:36:21.809Z,17.43
2023-03-26T13:39:42.330Z,17.44
2023-03-26T13:42:50.643Z,17.49
2023-03-26T13:46:20.720Z,17.47
2023-03-26T13:49:37.380Z,17.56
2023-03-26T13:52:56.059Z,17.55
2023-03-26T13:56:02.516Z,17.59
2023-03-26T13:59:31.434Z,17.62
2023-03-26T14:02:41.322Z,17.71
2023-03-26T14:05:48.293Z,17.62
2023-03-26T14:09:31.487Z,17.85
2023-03-26T14:13:07.960Z,17.78
2023-03-26T14:16:29.460Z,17.61
2023-03-26T14:20:18.218Z,17.74
2023-03-26T14:23:52.149Z,17.83
2023-03-26T14:27:13.043Z,17.99
2023-03-26T14:30:33.739Z,17.85
2023-03-26T14:33:51.102Z,17.89
2023-03-26T14:37:18.966Z,17.95
2023-03-26T14:40:48.652Z,17.86
2023-03-26T14:44:47.727Z,17.89
2023-03-26T14:48:25.894Z,17.79
2023-03-26T14:51:34.505Z,17.66
2023-03-26T14:54:42.922Z,17.57
2023-03-26T14:58:22.295Z,17.57
2023-03-26T15:01:56.553Z,17.55
2023-03-26T15:05:17.073Z,17.49
2023-03-26T15:08:33.960Z,17.41
2023-03-26T15:12:21.394Z,17.40
2023-03-26T15:16:04.430Z,17.36
2023-03-26T15:19:15.039Z,17.34
2023-03-26T15:22:40.594Z,17.38
2023-03-26T15:26:20.020Z,17.46
2023-03-26T15:29:43.586Z,17.29
2023-03-26T15:33:03.877Z,17.35
2023-03-26T15:36:32.573Z,17.31
2023-03-26T15:40:31.728Z,17.19
2023-03-26T15:44:24.786Z,17.25
2023-03-26T15:47:42.129Z,17.16
2023-03-26T15:50:56.729Z,17.15
2023-03-26T15:54:16.621Z,17.08
2023-03-26T15:57:31.792Z,16.99
2023-03-26T16:00:51.998Z,16.96
2023-03-26T16:04:12.976Z,17.01
2023-03-26T16:07:21.860Z,16.98
2023-03-26T16:10:31.468Z,16.92
2023-03-26T16:13:46.047Z,16.78
2023-03-26T16:16:54.781Z,16.66
2023-03-26T16:20:16.262Z,16.64
2023-03-26T16:23:31.972Z,16.55
2023-03-26T16:26:52.306Z,16.58
2023-03-26T16:30:02.734Z,16.49
2023-03-26T16:33:15.689Z,16.40
2023-03-26T16:36:18.590Z,16.31
2023-03-26T16:39:38.233Z,16.22
2023-03-26T16:42:46.840Z,16.13
2023-03-26T16:45:59.485Z,16.08
2023-03-26T16:49:13.341Z,16.00
2023-03-26T16:52:23.648Z,15.92
2023-03-26T16:55:43.492Z,15.89
2023-03-26T16:58:56.282Z,15.82
2023-03-26T17:02:22.120Z,15.71
2023-03-26T17:05:36.835Z,15.73
2023-03-26T17:09:21.490Z,15.57
2023-03-26T17:13:15.919Z,15.57
2023-03-26T17:16:31.204Z,15.49
2023-03-26T17:19:54.369Z,15.43
2023-03-26T17:22:59.460Z,15.38
2023-03-26T17:26:32.330Z,15.31
2023-03-26T17:30:08.520Z,15.27
2023-03-26T17:33:29.142Z,15.25
2023-03-26T17:36:41.232Z,15.21
2023-03-26T17:39:46.798Z,15.21
2023-03-26T17:43:11.535Z,15.15
2023-03-26T17:46:44.765Z,15.14
2023-03-26T17:49:55.425Z,15.12
2023-03-26T17:53:00.495Z,15.06
2023-03-26T17:56:14.278Z,15.09
2023-03-26T17:59:25.192Z,15.14
2023-03-26T18:02:42.253Z,15.12
2023-03-26T18:05:46.120Z,15.11
2023-03-26T18:09:12.811Z,15.14
2023-03-26T18:12:55.796Z,15.13
2023-03-26T18:16:01.303Z,15.14
2023-03-26T18:19:19.058Z,15.08
2023-03-26T18:22:31.384Z,15.04
2023-03-26T18:25:34.171Z,15.01
2023-03-26T18:28:44.755Z,15.02
2023-03-26T18:31:53.292Z,15.03
2023-03-26T18:35:13.469Z,14.98
2023-03-26T18:38:36.175Z,14.85
2023-03-26T18:41:42.726Z,14.92
2023-03-26T18:44:49.061Z,14.84
2023-03-26T18:48:09.999Z,14.83
2023-03-26T18:51:12.779Z,14.83
2023-03-26T18:54:24.159Z,14.81
2023-03-26T18:57:29.813Z,14.79
2023-03-26T19:00:32.290Z,14.75
2023-03-26T19:03:37.338Z,14.78
2023-03-26T19:06:41.827Z,14.76
2023-03-26T19:09:44.755Z,14.72
2023-03-26T19:12:55.574Z,14.75
2023-03-26T19:15:59.104Z,14.65
2023-03-26T19:19:05.289Z,14.50
2023-03-26T19:22:13.942Z,14.37
2023-03-26T19:25:26.681Z,14.32
2023-03-26T19:28:35.991Z,14.28
2023-03-26T19:31:42.400Z,14.21
2023-03-26T19:34:47.143Z,14.24
2023-03-26T19:37:54.176Z,14.17
2023-03-26T19:40:58.109Z,14.25
2023-03-26T19:44:03.428Z,14.23
2023-03-26T19:47:14.981Z,14.22
2023-03-26T19:50:23.449Z,14.07
2023-03-26T19:53:43.604Z,14.08
2023-03-26T19:56:48.230Z,14.05
2023-03-26T19:59:53.063Z,13.98
2023-03-26T20:02:55.877Z,13.97
2023-03-26T20:05:58.381Z,13.90
2023-03-26T20:09:04.201Z,13.86
2023-03-26T20:12:06.538Z,13.83
2023-03-26T20:15:25.847Z,13.86
2023-03-26T20:18:30.022Z,13.85
2023-03-26T20:21:35.348Z,13.77
2023-03-26T20:24:37.643Z,13.76
2023-03-26T20:27:40.577Z,13.71
2023-03-26T20:30:42.883Z,13.72
2023-03-26T20:33:47.972Z,13.73
2023-03-26T20:36:57.041Z,13.68
2023-03-26T20:40:07.034Z,13.72
2023-03-26T20:43:12.496Z,13.78
2023-03-26T20:46:20.208Z,13.83
2023-03-26T20:49:22.496Z,13.80
2023-03-26T20:52:25.611Z,13.79
2023-03-26T20:55:28.340Z,13.76
2023-03-26T20:58:32.434Z,13.78
2023-03-26T21:01:34.873Z,13.71
2023-03-26T21:04:37.210Z,13.68
2023-03-26T21:07:44.698Z,13.74
2023-03-26T21:10:47.625Z,13.77
2023-03-26T21:14:01.053Z,13.71
2023-03-26T21:17:03.698Z,13.67
2023-03-26T21:20:13.458Z,13.59
2023-03-26T21:23:40.680Z,13.56
2023-03-26T21:26:53.747Z,13.55
2023-03-26T21:29:58.339Z,13.67
2023-03-26T21:33:05.247Z,13.55
2023-03-26T21:36:10.859Z,13.47
2023-03-26T21:39:13.361Z,13.48
2023-03-26T21:42:22.580Z,13.38
2023-03-26T21:45:25.395Z,13.42
2023-03-26T21:48:29.359Z,13.19
2023-03-26T21:51:32.105Z,12.85
2023-03-26T21:54:37.930Z,12.82
2023-03-26T21:57:51.675Z,12.83
2023-03-26T22:00:56.964Z,12.79
2023-03-26T22:04:18.036Z,12.81
2023-03-26T22:07:30.692Z,12.80
2023-03-26T22:10:35.571Z,12.78
2023-03-26T22:13:39.000Z,12.82
2023-03-26T22:16:41.716Z,12.79
2023-03-26T22:19:44.017Z,12.76
2023-03-26T22:22:53.185Z,12.76
2023-03-26T22:25:56.086Z,12.72
2023-03-26T22:28:58.712Z,12.71
2023-03-26T22:32:03.796Z,12.66
2023-03-26T22:35:09.400Z,12.60
2023-03-26T22:38:11.851Z,12.45
2023-03-26T22:41:16.424Z,12.31
2023-03-26T22:44:27.092Z,12.06
2023-03-26T22:47:30.573Z,12.02
2023-03-26T22:50:35.145Z,11.99
2023-03-26T22:53:39.663Z,11.90
2023-03-26T22:56:42.065Z,11.80
2023-03-26T22:59:46.525Z,11.79
2023-03-26T23:02:51.168Z,11.72
2023-03-26T23:06:01.824Z,11.63
2023-03-26T23:09:07.062Z,11.47
2023-03-26T23:12:09.343Z,11.59
2023-03-26T23:15:14.127Z,11.52
2023-03-26T23:18:17.405Z,11.42
2023-03-26T23:21:22.486Z,11.49
2023-03-26T23:24:26.591Z,11.51
2023-03-26T23:27:32.941Z,11.50
2023-03-26T23:30:37.423Z,11.49
2023-03-26T23:33:45.911Z,11.43
2023-03-26T23:36:49.261Z,11.37
2023-03-26T23:39:55.111Z,11.25
2023-03-26T23:42:57.301Z,11.21
2023-03-26T23:45:59.658Z,11.23
2023-03-26T23:49:10.261Z,11.21
2023-03-26T23:52:12.523Z,11.14
2023-03-26T23:55:17.478Z,11.11
2023-03-26T23:58:23.151Z,11.08
